Time;durP1;ratioP1;P1;durP2;ratioP2;P2;SDS_P1;SDS_P2;PMS_P1;PMS_P2;Temp;Humidity;BMP_temperature;BMP_pressure;BME280_temperature;BME280_humidity;BME280_pressure;Samples;Min_cycle;Max_cycle;Signal;HPM_P1;HPM_P2
2023/01/14 00:01:09;;;;;;;14.20;10.40;;;;;;;;;;5031460;28;20021;-60
2023/01/14 00:03:35;;;;;;;14.18;10.25;;;;;;;;;;5030962;28;20071;-60
2023/01/14 00:06:01;;;;;;;14.20;10.57;;;;;;;;;;5031442;28;20029;-60
2023/01/14 00:08:29;;;;;;;14.13;10.20;;;;;;;;;;5031283;28;20485;-57
2023/01/14 00:10:55;;;;;;;14.00;9.93;;;;;;;;;;5055489;23;20053;-63
2023/01/14 00:13:21;;;;;;;14.00;9.85;;;;;;;;;;5031016;28;20384;-60
2023/01/14 00:15:55;;;;;;;13.90;9.55;;;;;;;;;;5032709;28;20104;-62
2023/01/14 00:18:21;;;;;;;13.93;9.80;;;;;;;;;;5032723;28;20030;-62
2023/01/14 00:20:57;;;;;;;13.90;9.93;;;;;;;;;;5047878;28;20025;-61
2023/01/14 00:23:24;;;;;;;14.18;10.27;;;;;;;;;;5047902;28;20574;-60
2023/01/14 00:25:50;;;;;;;14.02;10.02;;;;;;;;;;5048060;28;20029;-61
2023/01/14 00:28:16;;;;;;;13.98;10.10;;;;;;;;;;5033693;28;20390;-63
2023/01/14 00:30:42;;;;;;;14.02;10.02;;;;;;;;;;5034259;28;20474;-60
2023/01/14 00:33:08;;;;;;;14.18;10.32;;;;;;;;;;5034171;28;20030;-61
2023/01/14 00:35:34;;;;;;;14.10;10.30;;;;;;;;;;5049660;28;20026;-60
2023/01/14 00:38:01;;;;;;;16.77;10.48;;;;;;;;;;5049547;28;20469;-60
2023/01/14 00:40:27;;;;;;;13.90;9.50;;;;;;;;;;5049489;28;20025;-58
2023/01/14 00:42:53;;;;;;;13.95;9.77;;;;;;;;;;5049527;28;20013;-62
2023/01/14 00:45:19;;;;;;;13.80;9.40;;;;;;;;;;5049118;28;20034;-61
2023/01/14 00:47:45;;;;;;;14.00;9.30;;;;;;;;;;5049372;28;20025;-62
2023/01/14 00:50:11;;;;;;;13.68;9.00;;;;;;;;;;5033959;28;20033;-60
2023/01/14 00:52:37;;;;;;;13.45;8.43;;;;;;;;;;5034187;28;20025;-61
2023/01/14 00:55:03;;;;;;;13.73;9.13;;;;;;;;;;5033676;28;20108;-60
2023/01/14 00:57:29;;;;;;;13.48;8.40;;;;;;;;;;5049271;28;20025;-58
2023/01/14 00:59:55;;;;;;;13.52;8.60;;;;;;;;;;5048970;28;20240;-62
2023/01/14 01:02:21;;;;;;;13.32;8.20;;;;;;;;;;5032995;28;20022;-63
2023/01/14 01:04:47;;;;;;;13.27;8.00;;;;;;;;;;5048860;28;20505;-61
2023/01/14 01:07:13;;;;;;;13.05;7.65;;;;;;;;;;5033723;28;20030;-63
2023/01/14 01:09:39;;;;;;;13.48;8.57;;;;;;;;;;5033498;28;20029;-63
2023/01/14 01:12:05;;;;;;;13.38;8.18;;;;;;;;;;5048806;28;20045;-61
2023/01/14 01:14:31;;;;;;;14.75;9.77;;;;;;;;;;5033389;28;20394;-62
2023/01/14 01:16:57;;;;;;;13.25;7.90;;;;;;;;;;5033328;28;20025;-60
2023/01/14 01:19:23;;;;;;;13.18;7.85;;;;;;;;;;5033308;28;20663;-60
2023/01/14 01:21:49;;;;;;;13.80;8.50;;;;;;;;;;5048630;28;20137;-61
2023/01/14 01:24:16;;;;;;;13.38;8.27;;;;;;;;;;5033162;28;20021;-61
2023/01/14 01:26:45;;;;;;;13.38;8.10;;;;;;;;;;5048681;28;20020;-58
2023/01/14 01:29:11;;;;;;;16.80;12.95;;;;;;;;;;5048671;28;20032;-59
2023/01/14 01:31:37;;;;;;;33.65;9.95;;;;;;;;;;5048724;28;20021;-58
2023/01/14 01:34:03;;;;;;;13.38;8.10;;;;;;;;;;5032972;28;20497;-59
2023/01/14 01:36:29;;;;;;;13.35;8.20;;;;;;;;;;5048338;28;20090;-60
2023/01/14 01:38:56;;;;;;;12.82;7.50;;;;;;;;;;5048457;28;20661;-60
2023/01/14 01:41:29;;;;;;;12.93;7.50;;;;;;;;;;5033102;28;20045;-55
2023/01/14 01:43:57;;;;;;;13.00;7.63;;;;;;;;;;5032853;28;20017;-59
2023/01/14 01:46:23;;;;;;;12.50;7.30;;;;;;;;;;5048603;28;20021;-58
2023/01/14 01:48:49;;;;;;;12.82;7.50;;;;;;;;;;5033120;28;20029;-60
2023/01/14 01:51:18;;;;;;;18.90;7.57;;;;;;;;;;5048225;28;20036;-61
2023/01/14 01:53:45;;;;;;;12.73;7.45;;;;;;;;;;5032679;28;20021;-62
2023/01/14 01:56:13;;;;;;;12.88;7.70;;;;;;;;;;5048086;28;20522;-60
2023/01/14 01:58:40;;;;;;;12.95;7.60;;;;;;;;;;5032528;28;20025;-60
2023/01/14 02:01:06;;;;;;;12.85;7.60;;;;;;;;;;5047870;28;20029;-58
2023/01/14 02:03:43;;;;;;;12.93;7.60;;;;;;;;;;5032434;28;20022;-63
2023/01/14 02:06:09;;;;;;;12.95;7.55;;;;;;;;;;5032599;28;20027;-61
2023/01/14 02:08:38;;;;;;;13.88;9.77;;;;;;;;;;5047915;28;20021;-61
2023/01/14 02:11:13;;;;;;;12.57;7.30;;;;;;;;;;5047635;28;20033;-60
2023/01/14 02:13:58;;;;;;;12.63;7.60;;;;;;;;;;5031321;28;20038;-62
2023/01/14 02:16:42;;;;;;;13.13;8.35;;;;;;;;;;5047838;28;20119;-61
2023/01/14 02:19:14;;;;;;;13.35;8.50;;;;;;;;;;5032292;28;20082;-63
2023/01/14 02:21:42;;;;;;;12.20;7.10;;;;;;;;;;5032213;28;20022;-63
2023/01/14 02:24:20;;;;;;;12.10;7.10;;;;;;;;;;5032096;28;20032;-63
2023/01/14 02:26:50;;;;;;;12.13;7.07;;;;;;;;;;5032132;28;20433;-60
2023/01/14 02:29:31;;;;;;;12.02;7.00;;;;;;;;;;5032148;28;20026;-61
2023/01/14 02:32:02;;;;;;;12.80;8.05;;;;;;;;;;5032053;28;20030;-64
2023/01/14 02:34:28;;;;;;;12.25;7.15;;;;;;;;;;5031866;28;20025;-61
2023/01/14 02:36:57;;;;;;;12.15;7.10;;;;;;;;;;5031989;28;20025;-61
2023/01/14 02:39:26;;;;;;;12.75;7.60;;;;;;;;;;5047354;28;20022;-63
2023/01/14 02:44:40;;;;;;;13.32;8.05;;;;;;;;;;5031741;28;20082;-63
2023/01/14 02:47:09;;;;;;;13.05;7.70;;;;;;;;;;5032033;28;20025;-64
2023/01/14 02:49:35;;;;;;;;;;;;;;;;;;5032281;28;20057;-63
2023/01/14 02:52:05;;;;;;;11.95;7.00;;;;;;;;;;5031783;28;20361;-61
2023/01/14 02:54:31;;;;;;;12.32;7.20;;;;;;;;;;5031433;28;20029;-63
2023/01/14 02:57:00;;;;;;;12.23;7.13;;;;;;;;;;5047059;28;20045;-59
2023/01/14 02:59:26;;;;;;;11.75;7.10;;;;;;;;;;5031663;28;20132;-63
2023/01/14 03:01:58;;;;;;;12.15;7.10;;;;;;;;;;5046896;28;20068;-60
2023/01/14 03:04:35;;;;;;;12.50;7.30;;;;;;;;;;5031512;28;20241;-61
2023/01/14 03:07:10;;;;;;;12.73;7.80;;;;;;;;;;5047058;28;20022;-62
2023/01/14 03:10:09;;;;;;;12.60;7.40;;;;;;;;;;5031652;28;20026;-62
2023/01/14 03:12:40;;;;;;;13.25;7.80;;;;;;;;;;4998145;28;20075;-61
2023/01/14 03:15:10;;;;;;;13.07;8.05;;;;;;;;;;5031347;28;20051;-62
2023/01/14 03:17:55;;;;;;;13.23;7.75;;;;;;;;;;5031496;28;20037;-58
2023/01/14 03:20:24;;;;;;;12.85;7.55;;;;;;;;;;5031322;28;20037;-61
2023/01/14 03:22:51;;;;;;;13.18;7.95;;;;;;;;;;5047012;28;20073;-60
2023/01/14 03:25:17;;;;;;;13.23;7.85;;;;;;;;;;5032521;28;20029;-61
2023/01/14 03:27:45;;;;;;;13.35;7.97;;;;;;;;;;5035396;28;20036;-60
2023/01/14 03:30:13;;;;;;;13.07;7.70;;;;;;;;;;5035353;28;20029;-61
2023/01/14 03:32:45;;;;;;;13.38;8.20;;;;;;;;;;5050731;28;20040;-61
2023/01/14 03:35:18;;;;;;;13.40;8.10;;;;;;;;;;5050671;28;20167;-61
2023/01/14 03:37:50;;;;;;;13.25;8.10;;;;;;;;;;5050885;28;20124;-61
2023/01/14 03:40:17;;;;;;;13.18;7.88;;;;;;;;;;5035192;28;20018;-60
2023/01/14 03:42:45;;;;;;;13.40;8.20;;;;;;;;;;5035227;28;20026;-61
2023/01/14 03:45:11;;;;;;;;;;;;;;;;;;5050902;28;20025;-61
2023/01/14 03:47:37;;;;;;;13.38;8.25;;;;;;;;;;5035090;28;19905;-62
2023/01/14 03:50:05;;;;;;;13.43;8.20;;;;;;;;;;5034963;28;20033;-59
2023/01/14 03:52:31;;;;;;;13.55;8.50;;;;;;;;;;5035055;28;20031;-61
2023/01/14 03:55:02;;;;;;;14.00;9.30;;;;;;;;;;5050013;28;20389;-62
2023/01/14 03:57:46;;;;;;;13.70;8.80;;;;;;;;;;5034940;28;20037;-63
2023/01/14 04:00:14;;;;;;;13.35;8.30;;;;;;;;;;5050267;28;20448;-62
2023/01/14 04:02:40;;;;;;;13.50;8.50;;;;;;;;;;5050263;28;20037;-62
2023/01/14 04:05:07;;;;;;;13.50;8.32;;;;;;;;;;5034606;28;20268;-61
2023/01/14 04:07:33;;;;;;;13.48;8.43;;;;;;;;;;5034757;28;20030;-62
2023/01/14 04:09:59;;;;;;;16.27;9.80;;;;;;;;;;5034834;28;20095;-62
2023/01/14 04:12:25;;;;;;;13.52;8.52;;;;;;;;;;5049785;28;20029;-63
2023/01/14 04:17:37;;;;;;;13.63;8.82;;;;;;;;;;5034895;28;20037;-63
2023/01/14 04:20:04;;;;;;;13.55;8.52;;;;;;;;;;5049827;28;20049;-61
2023/01/14 04:22:30;;;;;;;13.48;8.35;;;;;;;;;;5034348;28;20029;-62
2023/01/14 04:24:56;;;;;;;14.10;9.63;;;;;;;;;;5034217;28;20148;-62
2023/01/14 04:27:22;;;;;;;13.45;8.40;;;;;;;;;;5049249;28;20021;-62
2023/01/14 04:29:48;;;;;;;14.10;9.85;;;;;;;;;;5049217;28;20613;-61
2023/01/14 04:32:14;;;;;;;13.80;9.27;;;;;;;;;;5049244;28;20462;-61
2023/01/14 04:34:40;;;;;;;13.32;8.20;;;;;;;;;;5033674;28;20099;-62
2023/01/14 04:37:07;;;;;;;13.45;8.52;;;;;;;;;;5033012;28;20033;-61
2023/01/14 04:39:34;;;;;;;13.43;8.43;;;;;;;;;;5034049;28;20746;-61
2023/01/14 04:44:46;;;;;;;13.60;8.80;;;;;;;;;;5033608;28;20508;-61
2023/01/14 04:47:14;;;;;;;14.85;9.85;;;;;;;;;;5033894;28;20017;-61
2023/01/14 04:49:40;;;;;;;13.68;9.07;;;;;;;;;;5034019;28;20033;-58
2023/01/14 04:52:06;;;;;;;13.57;8.70;;;;;;;;;;5049194;28;20090;-61
2023/01/14 04:54:32;;;;;;;13.90;9.50;;;;;;;;;;5033604;28;20522;-60
2023/01/14 04:56:58;;;;;;;13.73;9.20;;;;;;;;;;5049054;28;20022;-61
2023/01/14 04:59:24;;;;;;;14.00;9.82;;;;;;;;;;5033658;28;20482;-62
2023/01/14 05:01:50;;;;;;;13.90;9.60;;;;;;;;;;5033667;28;20033;-61
2023/01/14 05:04:16;;;;;;;13.80;9.30;;;;;;;;;;5033426;28;20025;-61
2023/01/14 05:06:42;;;;;;;13.88;9.50;;;;;;;;;;5033538;28;20067;-61
2023/01/14 05:09:08;;;;;;;13.85;9.40;;;;;;;;;;5049021;28;20030;-61
2023/01/14 05:11:34;;;;;;;14.07;9.98;;;;;;;;;;5033396;28;20410;-62
2023/01/14 05:14:00;;;;;;;13.80;9.20;;;;;;;;;;5033372;28;20033;-60
2023/01/14 05:16:27;;;;;;;14.95;10.98;;;;;;;;;;5048480;28;20038;-62
2023/01/14 05:18:53;;;;;;;13.88;9.45;;;;;;;;;;5033342;28;20029;-62
2023/01/14 05:21:19;;;;;;;13.90;9.60;;;;;;;;;;5032044;28;20025;-62
2023/01/14 05:23:45;;;;;;;13.77;9.27;;;;;;;;;;5033036;28;20033;-59
2023/01/14 05:26:11;;;;;;;13.73;9.23;;;;;;;;;;5031952;28;20120;-61
2023/01/14 05:28:37;;;;;;;13.82;9.38;;;;;;;;;;5033281;28;20116;-60
2023/01/14 05:31:04;;;;;;;13.80;9.20;;;;;;;;;;5033029;28;20052;-59
2023/01/14 05:33:30;;;;;;;13.88;9.65;;;;;;;;;;5031617;28;20121;-56
2023/01/14 05:35:56;;;;;;;13.90;9.50;;;;;;;;;;5033254;28;20060;-61
2023/01/14 05:38:22;;;;;;;14.55;10.48;;;;;;;;;;5033131;28;20030;-60
2023/01/14 05:40:49;;;;;;;13.75;9.20;;;;;;;;;;5031628;28;20024;-62
2023/01/14 05:46:02;;;;;;;14.10;9.77;;;;;;;;;;5033155;28;20115;-60
2023/01/14 05:48:28;;;;;;;14.00;9.77;;;;;;;;;;5032510;28;20175;-62
2023/01/14 05:50:56;;;;;;;13.80;9.27;;;;;;;;;;5032715;28;20120;-62
2023/01/14 05:53:22;;;;;;;14.07;10.00;;;;;;;;;;5032476;28;20077;-62
2023/01/14 05:55:48;;;;;;;13.77;9.30;;;;;;;;;;5031297;28;20671;-62
2023/01/14 05:58:15;;;;;;;13.73;9.15;;;;;;;;;;5032628;28;20053;-62
2023/01/14 06:06:28;;;;;;;14.07;9.63;;;;;;;;;;5032761;28;20039;-62
2023/01/14 06:08:54;;;;;;;13.68;8.98;;;;;;;;;;5025645;28;20497;-62
2023/01/14 06:11:23;;;;;;;13.75;9.10;;;;;;;;;;5031823;28;20033;-62
2023/01/14 06:13:49;;;;;;;13.65;8.90;;;;;;;;;;5013586;28;20030;-61
2023/01/14 06:16:15;;;;;;;27.15;10.32;;;;;;;;;;5014517;28;20021;-60
2023/01/14 06:18:42;;;;;;;13.90;9.60;;;;;;;;;;5032209;28;20052;-62
2023/01/14 06:21:10;;;;;;;13.63;9.00;;;;;;;;;;5030788;28;20022;-62
2023/01/14 06:23:36;;;;;;;13.85;9.40;;;;;;;;;;5031943;28;20608;-62
2023/01/14 06:26:02;;;;;;;14.57;9.85;;;;;;;;;;5019631;28;20580;-62
2023/01/14 06:28:28;;;;;;;13.60;8.90;;;;;;;;;;5012420;28;20025;-59
2023/01/14 06:30:55;;;;;;;13.63;8.77;;;;;;;;;;5012093;28;20018;-61
2023/01/14 06:33:21;;;;;;;13.65;9.00;;;;;;;;;;5017936;28;20035;-61
2023/01/14 06:35:47;;;;;;;14.32;10.45;;;;;;;;;;5031877;28;20026;-61
2023/01/14 06:38:13;;;;;;;13.55;8.68;;;;;;;;;;5031801;28;20032;-61
2023/01/14 06:40:41;;;;;;;13.65;8.90;;;;;;;;;;5031993;28;20023;-61
2023/01/14 06:43:08;;;;;;;16.80;9.40;;;;;;;;;;5031624;28;20382;-60
2023/01/14 06:45:34;;;;;;;13.48;8.43;;;;;;;;;;5031876;28;20053;-60
2023/01/14 06:48:00;;;;;;;13.55;8.45;;;;;;;;;;5030661;28;20029;-62
2023/01/14 06:50:26;;;;;;;13.50;8.50;;;;;;;;;;5031617;28;20017;-61
2023/01/14 06:52:52;;;;;;;13.32;8.25;;;;;;;;;;5031625;28;20074;-62
2023/01/14 06:55:22;;;;;;;14.10;9.30;;;;;;;;;;5031388;28;20025;-62
2023/01/14 06:57:48;;;;;;;13.38;8.00;;;;;;;;;;5030289;28;20025;-61
2023/01/14 07:00:14;;;;;;;13.43;8.23;;;;;;;;;;5029658;28;20024;-62
2023/01/14 07:02:40;;;;;;;13.40;8.20;;;;;;;;;;5030303;28;20195;-61
2023/01/14 07:05:06;;;;;;;15.20;10.63;;;;;;;;;;5030217;28;20436;-56
2023/01/14 07:07:33;;;;;;;13.43;8.40;;;;;;;;;;5030584;28;20116;-59
2023/01/14 07:09:59;;;;;;;13.40;8.10;;;;;;;;;;5030596;28;20087;-61
2023/01/14 07:12:24;;;;;;;13.38;8.07;;;;;;;;;;5031318;28;20041;-61
2023/01/14 07:14:50;;;;;;;15.45;10.88;;;;;;;;;;5031174;28;20029;-62
2023/01/14 07:17:16;;;;;;;14.35;9.73;;;;;;;;;;5031477;28;20072;-63
2023/01/14 07:19:42;;;;;;;13.55;8.57;;;;;;;;;;5031137;28;20117;-62
2023/01/14 07:22:08;;;;;;;13.40;8.30;;;;;;;;;;5031192;28;20105;-62
2023/01/14 07:24:37;;;;;;;13.13;7.70;;;;;;;;;;5029747;28;20080;-63
2023/01/14 07:27:03;;;;;;;13.20;7.70;;;;;;;;;;5031516;28;20014;-62
2023/01/14 07:29:29;;;;;;;13.10;8.10;;;;;;;;;;5029982;28;20071;-63
2023/01/14 07:31:56;;;;;;;12.93;7.50;;;;;;;;;;5031293;28;20100;-63
2023/01/14 07:34:22;;;;;;;12.60;7.30;;;;;;;;;;5031025;28;20453;-63
2023/01/14 07:36:48;;;;;;;12.80;7.40;;;;;;;;;;5031257;28;20024;-61
2023/01/14 07:39:14;;;;;;;12.90;7.50;;;;;;;;;;5029444;28;20501;-61
2023/01/14 07:41:40;;;;;;;12.35;7.20;;;;;;;;;;5029687;28;20032;-63
2023/01/14 07:44:06;;;;;;;12.10;7.40;;;;;;;;;;5029559;28;20025;-63
2023/01/14 07:46:32;;;;;;;16.10;7.90;;;;;;;;;;5031085;28;20505;-59
2023/01/14 07:48:59;;;;;;;11.00;6.50;;;;;;;;;;5029911;28;20117;-59
2023/01/14 07:51:25;;;;;;;12.70;7.70;;;;;;;;;;5031040;28;20033;-61
2023/01/14 07:53:51;;;;;;;11.90;6.95;;;;;;;;;;5029762;28;20056;-58
2023/01/14 07:56:17;;;;;;;11.48;7.28;;;;;;;;;;5029833;28;20034;-59
2023/01/14 07:58:43;;;;;;;10.52;6.20;;;;;;;;;;5030928;28;20029;-60
2023/01/14 08:01:10;;;;;;;10.75;6.53;;;;;;;;;;5029613;28;20444;-62
2023/01/14 08:03:37;;;;;;;10.70;6.28;;;;;;;;;;5030632;28;20022;-62
2023/01/14 08:06:06;;;;;;;14.82;8.07;;;;;;;;;;5031255;28;20033;-61
2023/01/14 08:08:33;;;;;;;10.63;6.30;;;;;;;;;;5031063;28;20052;-61
2023/01/14 08:11:00;;;;;;;11.00;6.50;;;;;;;;;;5029543;28;20049;-62
2023/01/14 08:13:27;;;;;;;10.90;6.38;;;;;;;;;;5032761;28;20060;-61
2023/01/14 08:16:00;;;;;;;11.23;6.60;;;;;;;;;;5033187;28;20037;-61
2023/01/14 08:18:26;;;;;;;11.40;7.50;;;;;;;;;;5033047;28;20481;-60
2023/01/14 08:20:59;;;;;;;24.85;8.27;;;;;;;;;;5034303;28;20029;-60
2023/01/14 08:23:25;;;;;;;11.40;6.70;;;;;;;;;;5034338;28;20018;-59
2023/01/14 08:25:51;;;;;;;11.70;6.80;;;;;;;;;;5034186;28;20103;-61
2023/01/14 08:28:17;;;;;;;11.50;6.75;;;;;;;;;;5034079;28;20026;-60
2023/01/14 08:30:43;;;;;;;11.60;6.80;;;;;;;;;;5034167;28;20041;-59
2023/01/14 08:33:09;;;;;;;11.93;6.97;;;;;;;;;;5032576;28;20032;-60
2023/01/14 08:35:39;;;;;;;11.65;6.82;;;;;;;;;;5034183;28;20148;-61
2023/01/14 08:38:05;;;;;;;11.82;7.10;;;;;;;;;;5034822;28;20027;-66
2023/01/14 08:40:32;;;;;;;12.80;7.40;;;;;;;;;;5034621;28;20025;-64
2023/01/14 08:42:58;;;;;;;12.57;7.32;;;;;;;;;;5034486;28;20033;-65
2023/01/14 08:45:24;;;;;;;13.40;8.07;;;;;;;;;;5033086;28;20021;-65
2023/01/14 08:47:50;;;;;;;13.25;7.90;;;;;;;;;;5034202;28;20067;-65
2023/01/14 08:50:16;;;;;;;13.57;8.70;;;;;;;;;;5034145;28;20018;-65
2023/01/14 08:52:42;;;;;;;13.85;9.48;;;;;;;;;;5032707;28;20513;-68
2023/01/14 08:55:08;;;;;;;14.05;10.07;;;;;;;;;;5032901;28;20053;-64
2023/01/14 08:57:34;;;;;;;14.02;9.95;;;;;;;;;;5032744;28;20056;-66
2023/01/14 09:00:00;;;;;;;16.77;14.05;;;;;;;;;;5033897;28;20079;-66
2023/01/14 09:02:26;;;;;;;14.55;11.55;;;;;;;;;;5033828;28;20089;-64
2023/01/14 09:04:52;;;;;;;15.52;12.70;;;;;;;;;;5033488;28;20757;-65
2023/01/14 09:18:25;;;;;;;18.15;16.35;;;;;;;;;;5032725;28;20036;-66
2023/01/14 09:20:51;;;;;;;21.65;19.75;;;;;;;;;;5032833;28;20026;-66
2023/01/14 09:23:17;;;;;;;24.05;22.05;;;;;;;;;;5030755;28;20033;-67
2023/01/14 09:25:43;;;;;;;23.45;21.45;;;;;;;;;;5030914;28;20108;-66
2023/01/14 09:28:09;;;;;;;23.83;21.83;;;;;;;;;;5032776;28;20077;-66
2023/01/14 09:30:35;;;;;;;24.27;22.27;;;;;;;;;;5032711;28;20026;-66
2023/01/14 09:33:04;;;;;;;25.65;23.55;;;;;;;;;;5032769;28;20528;-68
2023/01/14 09:35:30;;;;;;;26.13;24.02;;;;;;;;;;5031499;28;20041;-66
2023/01/14 09:37:57;;;;;;;37.08;34.38;;;;;;;;;;5032508;28;20079;-66
2023/01/14 09:40:23;;;;;;;35.55;32.95;;;;;;;;;;5032691;28;20025;-66
2023/01/14 09:42:50;;;;;;;38.67;35.88;;;;;;;;;;5032610;28;20025;-66
2023/01/14 09:45:21;;;;;;;39.65;36.75;;;;;;;;;;5032763;28;20027;-66
2023/01/14 09:47:47;;;;;;;38.55;35.75;;;;;;;;;;5031862;28;20110;-66
2023/01/14 09:50:15;;;;;;;36.45;33.75;;;;;;;;;;5031587;28;20088;-66
2023/01/14 09:52:43;;;;;;;36.67;33.97;;;;;;;;;;5031874;28;20026;-66
2023/01/14 09:55:18;;;;;;;34.78;32.17;;;;;;;;;;5032879;28;20057;-66
2023/01/14 09:57:58;;;;;;;36.88;34.17;;;;;;;;;;5032149;28;20029;-65
2023/01/14 10:00:30;;;;;;;35.90;33.30;;;;;;;;;;5031779;28;20033;-66
2023/01/14 10:03:15;;;;;;;35.75;33.10;;;;;;;;;;5033170;28;20025;-66
2023/01/14 10:05:42;;;;;;;33.92;31.42;;;;;;;;;;5032954;28;20052;-66
2023/01/14 10:08:12;;;;;;;36.70;33.45;;;;;;;;;;5032729;28;20033;-64
2023/01/14 10:10:42;;;;;;;32.50;30.00;;;;;;;;;;5031264;28;20490;-65
2023/01/14 10:13:32;;;;;;;32.92;30.42;;;;;;;;;;5032330;28;20056;-66
2023/01/14 10:16:10;;;;;;;33.10;30.60;;;;;;;;;;5032523;28;20021;-65
2023/01/14 10:18:36;;;;;;;32.60;30.10;;;;;;;;;;5031180;28;20107;-66
2023/01/14 10:21:05;;;;;;;32.85;30.35;;;;;;;;;;5032564;28;20486;-66
2023/01/14 10:23:31;;;;;;;;;;;;;;;;;;5031178;28;20478;-65
2023/01/14 10:25:57;;;;;;;33.35;30.85;;;;;;;;;;5032249;28;19970;-65
2023/01/14 10:28:25;;;;;;;32.53;30.02;;;;;;;;;;5032666;28;20029;-65
2023/01/14 10:30:52;;;;;;;36.97;34.17;;;;;;;;;;5032105;28;20108;-66
2023/01/14 10:33:19;;;;;;;39.05;36.15;;;;;;;;;;5031880;28;20116;-64
2023/01/14 10:35:46;;;;;;;37.55;34.75;;;;;;;;;;5029860;28;20379;-65
2023/01/14 10:38:17;;;;;;;36.95;34.25;;;;;;;;;;5031935;28;20565;-66
2023/01/14 10:40:43;;;;;;;37.25;34.45;;;;;;;;;;5030560;28;20021;-66
2023/01/14 10:43:16;;;;;;;37.72;34.92;;;;;;;;;;5030640;28;20406;-66
2023/01/14 10:45:42;;;;;;;35.85;33.15;;;;;;;;;;5031826;28;20053;-63
2023/01/14 10:48:11;;;;;;;35.83;33.15;;;;;;;;;;5031965;28;20107;-65
2023/01/14 10:50:37;;;;;;;34.55;31.95;;;;;;;;;;5031586;28;20025;-62
2023/01/14 10:53:20;;;;;;;35.15;32.55;;;;;;;;;;5031577;28;20087;-66
2023/01/14 10:55:51;;;;;;;33.15;30.65;;;;;;;;;;5032445;28;20029;-64
2023/01/14 10:58:26;;;;;;;32.92;30.42;;;;;;;;;;5032368;28;20041;-64
2023/01/14 11:00:58;;;;;;;31.95;29.45;;;;;;;;;;5031855;28;20025;-64
2023/01/14 11:03:29;;;;;;;34.58;31.98;;;;;;;;;;5031375;28;20099;-64
2023/01/14 11:05:57;;;;;;;32.70;30.20;;;;;;;;;;5027327;28;20018;-66
2023/01/14 11:08:34;;;;;;;33.22;30.73;;;;;;;;;;5024891;28;20049;-64
2023/01/14 11:11:06;;;;;;;34.20;31.60;;;;;;;;;;5031837;28;20033;-63
2023/01/14 11:13:36;;;;;;;31.55;29.17;;;;;;;;;;5023269;28;20521;-65
2023/01/14 11:16:02;;;;;;;31.80;29.40;;;;;;;;;;5011824;28;20026;-65
2023/01/14 11:18:30;;;;;;;29.88;27.58;;;;;;;;;;5022677;28;20505;-66
2023/01/14 11:21:02;;;;;;;30.67;28.38;;;;;;;;;;5011959;28;20403;-65
2023/01/14 11:23:29;;;;;;;29.13;26.83;;;;;;;;;;5011649;28;20490;-66
2023/01/14 11:25:57;;;;;;;31.30;28.90;;;;;;;;;;5012063;28;20022;-65
2023/01/14 11:28:24;;;;;;;29.88;27.58;;;;;;;;;;5010425;28;20026;-65
2023/01/14 11:30:52;;;;;;;28.10;25.90;;;;;;;;;;5010439;28;20389;-66
2023/01/14 11:33:23;;;;;;;28.25;26.05;;;;;;;;;;5010183;28;20109;-65
2023/01/14 11:35:51;;;;;;;29.08;26.77;;;;;;;;;;5010788;28;20030;-65
2023/01/14 11:38:21;;;;;;;30.42;28.13;;;;;;;;;;5011711;28;20044;-66
2023/01/14 11:43:34;;;;;;;28.40;26.20;;;;;;;;;;5011879;28;20045;-66
2023/01/14 11:46:04;;;;;;;28.08;25.88;;;;;;;;;;5012675;28;20026;-64
2023/01/14 11:48:30;;;;;;;29.30;27.08;;;;;;;;;;5014492;28;20030;-63
2023/01/14 11:51:00;;;;;;;30.85;28.35;;;;;;;;;;5015082;28;20022;-65
2023/01/14 11:53:41;;;;;;;28.95;26.75;;;;;;;;;;5014593;28;20058;-65
2023/01/14 11:56:11;;;;;;;28.38;26.17;;;;;;;;;;5016052;28;20036;-65
2023/01/14 11:58:37;;;;;;;28.25;26.05;;;;;;;;;;5014846;28;20048;-64
2023/01/14 12:01:06;;;;;;;28.80;26.60;;;;;;;;;;5015578;28;20065;-64
2023/01/14 12:03:33;;;;;;;30.50;28.20;;;;;;;;;;5015682;28;20021;-65
2023/01/14 12:06:00;;;;;;;29.90;27.60;;;;;;;;;;5014875;28;20041;-65
2023/01/14 12:08:28;;;;;;;29.52;27.33;;;;;;;;;;5013871;28;20029;-66
2023/01/14 12:19:13;;;;;;;30.17;27.88;;;;;;;;;;4994245;28;20494;-63
2023/01/14 12:21:42;;;;;;;30.55;28.25;;;;;;;;;;4984447;28;20102;-63
2023/01/14 12:24:08;;;;;;;;;;;;;;;;;;4994793;28;20132;-63
2023/01/14 12:26:40;;;;;;;29.85;27.65;;;;;;;;;;4994809;28;19906;-62
2023/01/14 12:29:10;;;;;;;30.60;28.30;;;;;;;;;;4994338;28;20033;-63
2023/01/14 12:31:39;;;;;;;29.52;27.33;;;;;;;;;;4994239;28;20023;-63
2023/01/14 12:34:29;;;;;;;30.23;27.92;;;;;;;;;;4992629;28;20054;-62
2023/01/14 12:37:05;;;;;;;32.33;29.92;;;;;;;;;;4990193;28;20063;-62
2023/01/14 12:47:55;;;;;;;31.63;29.30;;;;;;;;;;4994300;28;20276;-60
2023/01/14 12:50:22;;;;;;;33.08;30.67;;;;;;;;;;4992875;28;20033;-61
2023/01/14 12:52:52;;;;;;;33.55;31.15;;;;;;;;;;4993950;28;20112;-62
2023/01/14 12:55:32;;;;;;;35.55;33.05;;;;;;;;;;4994074;28;20129;-62
2023/01/14 12:57:59;;;;;;;36.90;34.30;;;;;;;;;;4993601;28;20124;-61
2023/01/14 13:00:27;;;;;;;36.22;33.67;;;;;;;;;;4994250;28;20038;-60
2023/01/14 13:02:54;;;;;;;35.78;33.28;;;;;;;;;;4992579;28;20033;-58
2023/01/14 13:05:40;;;;;;;38.70;36.00;;;;;;;;;;4993965;28;20046;-63
2023/01/14 13:08:08;;;;;;;36.22;33.72;;;;;;;;;;4994060;28;20018;-63
2023/01/14 13:10:34;;;;;;;34.95;32.45;;;;;;;;;;4993764;28;20025;-62
2023/01/14 13:13:05;;;;;;;32.22;29.92;;;;;;;;;;4992360;28;20042;-62
2023/01/14 13:15:38;;;;;;;31.85;29.55;;;;;;;;;;4993961;28;20030;-61
2023/01/14 13:18:06;;;;;;;31.73;29.42;;;;;;;;;;4994110;28;20097;-65
2023/01/14 13:20:35;;;;;;;30.75;28.45;;;;;;;;;;4994709;28;20108;-60
2023/01/14 13:23:01;;;;;;;30.83;28.52;;;;;;;;;;5001533;28;20030;-64
2023/01/14 13:25:40;;;;;;;32.63;30.23;;;;;;;;;;4998682;28;20398;-62
2023/01/14 13:28:12;;;;;;;30.85;28.55;;;;;;;;;;4994085;28;20101;-59
2023/01/14 13:30:44;;;;;;;30.75;28.45;;;;;;;;;;4993751;28;20359;-60
2023/01/14 13:33:19;;;;;;;31.17;28.88;;;;;;;;;;4993604;28;20023;-61
2023/01/14 13:36:04;;;;;;;32.08;29.77;;;;;;;;;;4993610;28;20025;-60
2023/01/14 13:38:31;;;;;;;36.05;33.45;;;;;;;;;;4993449;28;20034;-62
2023/01/14 13:41:06;;;;;;;32.40;30.10;;;;;;;;;;4993547;28;20042;-60
2023/01/14 13:43:33;;;;;;;35.08;32.67;;;;;;;;;;4991946;28;20026;-60
2023/01/14 13:46:01;;;;;;;36.50;34.00;;;;;;;;;;4993345;28;20026;-59
2023/01/14 13:48:34;;;;;;;40.20;37.50;;;;;;;;;;4993507;28;20027;-58
2023/01/14 13:51:19;;;;;;;40.45;37.75;;;;;;;;;;4993310;28;20045;-62
2023/01/14 13:54:05;;;;;;;39.63;36.92;;;;;;;;;;4991881;28;20050;-60
2023/01/14 13:56:32;;;;;;;38.30;35.70;;;;;;;;;;4993320;28;20031;-58
2023/01/14 13:59:00;;;;;;;38.78;36.17;;;;;;;;;;4992799;28;20030;-61
2023/01/14 14:01:28;;;;;;;37.28;34.78;;;;;;;;;;4992648;28;20607;-60
2023/01/14 14:03:55;;;;;;;37.55;35.05;;;;;;;;;;4992293;28;20120;-62
2023/01/14 14:06:21;;;;;;;37.50;35.00;;;;;;;;;;4992598;28;20026;-57
2023/01/14 14:08:59;;;;;;;38.55;35.95;;;;;;;;;;4992291;28;20089;-60
2023/01/14 14:11:27;;;;;;;39.10;36.50;;;;;;;;;;4992080;28;20085;-57
2023/01/14 14:14:04;;;;;;;39.75;37.05;;;;;;;;;;4991141;28;20035;-59
2023/01/14 14:16:33;;;;;;;37.72;35.15;;;;;;;;;;4990952;28;20117;-55
2023/01/14 14:19:02;;;;;;;36.72;34.22;;;;;;;;;;4990268;28;20371;-56
2023/01/14 14:21:33;;;;;;;36.03;33.53;;;;;;;;;;4992423;28;20030;-53
2023/01/14 14:23:59;;;;;;;37.20;34.70;;;;;;;;;;4989297;28;20014;-57
2023/01/14 14:26:30;;;;;;;38.83;36.22;;;;;;;;;;4992002;28;20101;-62
2023/01/14 14:28:58;;;;;;;36.10;33.60;;;;;;;;;;4991768;28;20035;-60
2023/01/14 14:31:28;;;;;;;34.00;31.60;;;;;;;;;;4989503;28;20033;-57
2023/01/14 14:34:04;;;;;;;35.25;32.85;;;;;;;;;;4991598;28;20321;-60
2023/01/14 14:36:30;;;;;;;36.50;34.00;;;;;;;;;;4990166;28;20038;-58
2023/01/14 14:38:57;;;;;;;37.22;34.72;;;;;;;;;;4991274;28;20139;-59
2023/01/14 14:41:27;;;;;;;38.17;35.58;;;;;;;;;;4992267;28;20063;-54
2023/01/14 14:43:59;;;;;;;38.28;35.67;;;;;;;;;;4991365;28;20034;-56
2023/01/14 14:46:25;;;;;;;39.08;36.47;;;;;;;;;;4991042;28;20018;-58
2023/01/14 14:48:52;;;;;;;39.38;36.78;;;;;;;;;;4991823;28;20406;-58
2023/01/14 14:51:21;;;;;;;36.95;34.45;;;;;;;;;;4992797;28;20487;-58
2023/01/14 14:53:47;;;;;;;37.75;35.25;;;;;;;;;;4991983;28;20063;-55
2023/01/14 14:56:15;;;;;;;38.63;36.03;;;;;;;;;;4992476;28;20065;-57
2023/01/14 14:58:50;;;;;;;40.30;37.60;;;;;;;;;;4992067;28;20055;-54
2023/01/14 15:01:16;;;;;;;39.88;37.22;;;;;;;;;;4992030;28;20082;-51
2023/01/14 15:03:43;;;;;;;38.60;36.00;;;;;;;;;;4992145;28;20077;-53
2023/01/14 15:06:12;;;;;;;38.10;35.50;;;;;;;;;;4992399;28;20098;-54
2023/01/14 15:08:39;;;;;;;37.70;35.15;;;;;;;;;;4992515;28;20030;-52
2023/01/14 15:11:07;;;;;;;38.83;36.23;;;;;;;;;;4992212;28;20053;-53
2023/01/14 15:13:54;;;;;;;38.15;35.58;;;;;;;;;;4991521;28;20031;-55
2023/01/14 15:16:23;;;;;;;36.00;33.55;;;;;;;;;;4990479;28;20042;-52
2023/01/14 15:18:56;;;;;;;38.40;35.80;;;;;;;;;;4991483;28;20574;-56
2023/01/14 15:21:25;;;;;;;37.40;34.90;;;;;;;;;;4994120;28;20033;-52